createdAt,value
2018-05-17T00:00:32.767Z,13.50
2018-05-17T00:03:01.990Z,13.40
2018-05-17T00:05:29.486Z,13.40
2018-05-17T00:07:57.017Z,13.30
2018-05-17T00:10:24.471Z,13.30
2018-05-17T00:12:51.919Z,13.30
2018-05-17T00:15:19.420Z,13.00
2018-05-17T00:17:46.879Z,12.90
2018-05-17T00:20:14.337Z,13.00
2018-05-17T00:22:41.900Z,13.00
2018-05-17T00:25:09.376Z,13.00
2018-05-17T00:27:37.615Z,13.10
2018-05-17T00:30:05.092Z,13.10
2018-05-17T00:32:32.566Z,13.20
2018-05-17T00:35:00.773Z,13.50
2018-05-17T00:37:28.236Z,13.50
2018-05-17T00:39:55.695Z,13.50
2018-05-17T00:42:23.197Z,13.60
2018-05-17T00:44:50.672Z,13.50
2018-05-17T00:47:18.922Z,13.20
2018-05-17T00:49:46.417Z,13.20
2018-05-17T00:52:14.652Z,13.10
2018-05-17T00:54:42.105Z,13.10
2018-05-17T00:57:09.581Z,13.00
2018-05-17T00:59:37.805Z,12.90
2018-05-17T01:02:05.269Z,12.80
2018-05-17T01:04:32.748Z,12.80
2018-05-17T01:07:00.207Z,13.00
2018-05-17T01:09:27.902Z,13.10
2018-05-17T01:11:56.135Z,12.90
2018-05-17T01:14:23.714Z,12.90
2018-05-17T01:16:51.279Z,12.70
2018-05-17T01:19:18.776Z,12.80
2018-05-17T01:21:46.273Z,12.80
2018-05-17T01:24:13.744Z,12.90
2018-05-17T01:26:41.218Z,12.90
2018-05-17T01:29:09.487Z,13.00
2018-05-17T01:31:37.023Z,13.00
2018-05-17T01:34:04.498Z,12.90
2018-05-17T01:36:31.952Z,13.00
2018-05-17T01:38:59.431Z,13.00
2018-05-17T01:41:27.679Z,12.80
2018-05-17T01:43:55.128Z,12.70
2018-05-17T01:46:22.646Z,12.70
2018-05-17T01:48:50.163Z,12.60
2018-05-17T01:51:17.640Z,12.60
2018-05-17T01:53:45.899Z,12.70
2018-05-17T01:56:14.130Z,12.40
2018-05-17T01:58:41.594Z,12.40
2018-05-17T02:01:09.075Z,12.20
2018-05-17T02:03:36.614Z,12.10
2018-05-17T02:06:04.103Z,12.10
2018-05-17T02:08:31.660Z,12.00
2018-05-17T02:10:59.123Z,12.00
2018-05-17T02:13:27.366Z,12.40
2018-05-17T02:15:54.810Z,12.30
2018-05-17T02:18:22.302Z,12.30
2018-05-17T02:20:51.293Z,12.10
2018-05-17T02:23:18.857Z,12.10
2018-05-17T02:25:46.334Z,12.10
2018-05-17T02:28:14.595Z,12.20
2018-05-17T02:30:42.138Z,12.20
2018-05-17T02:33:09.711Z,12.20
2018-05-17T02:35:37.267Z,12.40
2018-05-17T02:38:04.724Z,12.50
2018-05-17T02:40:32.284Z,12.50
2018-05-17T02:42:59.839Z,12.60
2018-05-17T02:45:27.320Z,12.50
2018-05-17T02:47:55.575Z,12.30
2018-05-17T02:50:23.051Z,12.20
2018-05-17T02:52:51.255Z,11.90
2018-05-17T02:55:18.744Z,11.80
2018-05-17T02:57:46.224Z,11.80
2018-05-17T03:00:13.759Z,11.70
2018-05-17T03:02:41.217Z,11.80
2018-05-17T03:05:08.696Z,11.80
2018-05-17T03:07:36.951Z,11.50
2018-05-17T03:10:04.415Z,11.40
2018-05-17T03:12:31.891Z,11.40
2018-05-17T03:14:59.450Z,11.60
2018-05-17T03:17:27.691Z,11.30
2018-05-17T03:19:55.179Z,11.30
2018-05-17T03:22:23.399Z,11.20
2018-05-17T03:24:50.908Z,11.20
2018-05-17T03:27:19.234Z,11.30
2018-05-17T03:29:46.788Z,11.20
2018-05-17T03:32:14.223Z,11.30
2018-05-17T03:34:41.676Z,11.10
2018-05-17T03:37:10.080Z,11.10
2018-05-17T03:39:37.524Z,11.00
2018-05-17T03:42:04.994Z,11.10
2018-05-17T03:44:32.480Z,11.10
2018-05-17T03:46:59.927Z,11.10
2018-05-17T03:49:27.475Z,11.10
2018-05-17T03:51:54.952Z,11.20
2018-05-17T03:54:22.439Z,11.20
2018-05-17T03:56:49.914Z,11.10
2018-05-17T03:59:18.313Z,11.10
2018-05-17T04:01:57.578Z,11.00
2018-05-17T04:04:37.038Z,10.90
2018-05-17T04:07:04.580Z,11.10
2018-05-17T04:09:32.060Z,11.00
2018-05-17T04:11:59.534Z,11.00
2018-05-17T04:14:27.773Z,11.00
2018-05-17T04:16:55.229Z,11.00
2018-05-17T04:19:23.616Z,11.10
2018-05-17T04:21:51.070Z,11.40
2018-05-17T04:24:20.098Z,11.50
2018-05-17T04:26:48.342Z,11.70
2018-05-17T04:29:15.846Z,11.70
2018-05-17T04:31:43.270Z,11.60
2018-05-17T04:34:10.820Z,11.50
2018-05-17T04:36:38.269Z,11.30
2018-05-17T04:39:05.747Z,11.00
2018-05-17T04:41:33.993Z,11.00
2018-05-17T04:44:01.466Z,11.00
2018-05-17T04:46:30.431Z,11.00
2018-05-17T04:48:58.021Z,11.00
2018-05-17T04:51:25.481Z,11.00
2018-05-17T04:53:53.037Z,11.00
2018-05-17T04:56:20.599Z,11.10
2018-05-17T04:58:49.676Z,11.10
2018-05-17T05:01:17.131Z,11.10
2018-05-17T05:03:44.605Z,11.20
2018-05-17T05:06:12.072Z,11.20
2018-05-17T05:08:40.324Z,11.10
2018-05-17T05:11:07.799Z,11.10
2018-05-17T05:13:35.341Z,11.20
2018-05-17T05:16:02.886Z,11.00
2018-05-17T05:18:30.386Z,10.90
2018-05-17T05:20:58.643Z,10.90
2018-05-17T05:23:26.113Z,10.90
2018-05-17T05:25:53.593Z,10.90
2018-05-17T05:28:21.166Z,11.10
2018-05-17T05:30:48.654Z,11.20
2018-05-17T05:33:16.227Z,11.30
2018-05-17T05:35:43.715Z,11.40
2018-05-17T05:38:11.972Z,11.40
2018-05-17T05:40:39.445Z,11.30
2018-05-17T05:43:07.711Z,11.30
2018-05-17T05:45:36.133Z,11.30
2018-05-17T05:48:03.609Z,11.30
2018-05-17T05:50:31.067Z,11.30
2018-05-17T05:52:58.533Z,11.40
2018-05-17T05:55:25.992Z,11.30
2018-05-17T05:57:53.449Z,11.40
2018-05-17T06:00:20.922Z,11.60
2018-05-17T06:02:48.376Z,11.80
2018-05-17T06:05:15.876Z,11.80
2018-05-17T06:07:43.447Z,11.70
2018-05-17T06:10:10.889Z,11.50
2018-05-17T06:12:38.393Z,11.60
2018-05-17T06:15:06.644Z,11.60
2018-05-17T06:17:34.094Z,11.50
2018-05-17T06:20:01.558Z,11.60
2018-05-17T06:22:29.003Z,11.70
2018-05-17T06:24:56.465Z,12.00
2018-05-17T06:27:23.947Z,12.10
2018-05-17T06:29:51.400Z,12.20
2018-05-17T06:32:18.873Z,11.90
2018-05-17T06:34:46.332Z,11.80
2018-05-17T06:37:13.799Z,11.80
2018-05-17T06:39:41.279Z,11.80
2018-05-17T06:42:09.551Z,12.50
2018-05-17T06:44:37.784Z,12.70
2018-05-17T06:47:05.248Z,12.70
2018-05-17T06:49:36.162Z,12.80
2018-05-17T06:52:03.672Z,13.20
2018-05-17T06:54:31.887Z,13.00
2018-05-17T06:56:59.333Z,12.90
2018-05-17T06:59:26.854Z,13.20
2018-05-17T07:01:54.381Z,13.50
2018-05-17T07:04:21.839Z,13.60
2018-05-17T07:06:49.328Z,13.70
2018-05-17T07:09:16.798Z,14.00
2018-05-17T07:11:45.040Z,14.20
2018-05-17T07:14:12.508Z,14.30
2018-05-17T07:16:39.968Z,14.10
2018-05-17T07:19:07.894Z,14.30
2018-05-17T07:21:35.350Z,14.10
2018-05-17T07:24:02.895Z,13.90
2018-05-17T07:26:30.303Z,13.70
2018-05-17T07:28:57.767Z,13.40
2018-05-17T07:31:25.327Z,13.50
2018-05-17T07:33:52.731Z,13.40
2018-05-17T07:36:20.187Z,13.60
2018-05-17T07:38:47.647Z,13.70
2018-05-17T07:41:15.127Z,13.60
2018-05-17T07:43:42.615Z,13.70
2018-05-17T07:46:10.062Z,13.90
2018-05-17T07:48:37.628Z,13.70
2018-05-17T07:51:05.180Z,13.60
2018-05-17T07:53:32.659Z,13.90
2018-05-17T07:56:00.911Z,13.50
2018-05-17T07:58:28.386Z,13.50
2018-05-17T08:00:56.653Z,13.60
2018-05-17T08:03:24.134Z,13.60
2018-05-17T08:05:52.380Z,13.60
2018-05-17T08:08:19.945Z,13.60
2018-05-17T08:10:47.419Z,13.60
2018-05-17T08:13:15.637Z,13.80
2018-05-17T08:15:43.119Z,13.80
2018-05-17T08:18:10.571Z,14.00
2018-05-17T08:20:38.034Z,14.00
2018-05-17T08:23:05.489Z,14.40
2018-05-17T08:25:33.055Z,14.70
2018-05-17T08:28:00.528Z,15.90
2018-05-17T08:30:28.736Z,16.50
2018-05-17T08:32:56.427Z,16.50
2018-05-17T08:35:23.870Z,16.00
2018-05-17T08:37:52.339Z,16.00
2018-05-17T08:40:20.700Z,16.10
2018-05-17T08:42:48.157Z,16.90
2018-05-17T08:45:15.634Z,17.60
2018-05-17T08:47:43.113Z,17.70
2018-05-17T08:50:10.618Z,17.70
2018-05-17T08:52:38.130Z,18.30
2018-05-17T08:55:05.608Z,18.90
2018-05-17T08:57:33.055Z,19.90
2018-05-17T09:00:00.542Z,20.00
2018-05-17T09:02:28.790Z,20.30
2018-05-17T09:04:56.236Z,20.30
2018-05-17T09:07:23.695Z,20.20
2018-05-17T09:09:51.205Z,19.20
2018-05-17T09:12:18.682Z,19.20
2018-05-17T09:14:46.154Z,18.40
2018-05-17T09:17:13.614Z,19.00
2018-05-17T09:19:41.872Z,19.40
2018-05-17T09:22:09.405Z,19.40
2018-05-17T09:24:36.892Z,18.60
2018-05-17T09:27:04.345Z,19.20
2018-05-17T09:29:31.803Z,20.80
2018-05-17T09:31:59.455Z,21.40
2018-05-17T09:34:26.913Z,21.60
2018-05-17T09:36:54.424Z,20.50
2018-05-17T09:39:21.944Z,20.70
2018-05-17T09:41:49.419Z,21.30
2018-05-17T09:44:16.894Z,21.20
2018-05-17T09:46:44.339Z,21.10
2018-05-17T09:49:11.796Z,21.40
2018-05-17T09:51:39.275Z,21.60
2018-05-17T09:54:06.756Z,22.00
2018-05-17T09:56:34.223Z,22.10
2018-05-17T09:59:01.704Z,22.10
2018-05-17T10:01:29.163Z,22.70
2018-05-17T10:03:56.643Z,23.40
2018-05-17T10:06:24.111Z,23.90
2018-05-17T10:08:51.653Z,24.60
2018-05-17T10:11:19.102Z,22.90
2018-05-17T10:13:46.595Z,22.40
2018-05-17T10:16:14.059Z,22.00
2018-05-17T10:18:42.308Z,23.10
2018-05-17T10:21:09.754Z,23.10
2018-05-17T10:23:37.234Z,22.90
2018-05-17T10:26:05.494Z,22.10
2018-05-17T10:28:32.965Z,22.10
2018-05-17T10:31:01.188Z,22.60
2018-05-17T10:33:28.655Z,22.60
2018-05-17T10:35:56.118Z,23.10
2018-05-17T10:38:23.587Z,23.10
2018-05-17T10:40:51.078Z,23.90
2018-05-17T10:43:19.299Z,24.40
2018-05-17T10:45:46.753Z,24.40
2018-05-17T10:48:14.230Z,25.50
2018-05-17T10:50:41.687Z,24.30
2018-05-17T10:53:09.134Z,24.30
2018-05-17T10:55:36.595Z,24.50
2018-05-17T10:58:04.069Z,25.40
2018-05-17T11:00:31.683Z,25.30
2018-05-17T11:02:59.152Z,25.10
2018-05-17T11:05:26.655Z,25.00
2018-05-17T11:07:54.123Z,24.80
2018-05-17T11:10:22.340Z,25.10
2018-05-17T11:12:49.807Z,25.10
2018-05-17T11:15:17.324Z,25.40
2018-05-17T11:17:44.767Z,26.10
2018-05-17T11:20:12.990Z,24.50
2018-05-17T11:22:40.439Z,24.50
2018-05-17T11:25:07.888Z,25.20
2018-05-17T11:27:35.347Z,24.50
2018-05-17T11:30:02.797Z,25.20
2018-05-17T11:32:30.282Z,24.70
2018-05-17T11:34:57.855Z,25.60
2018-05-17T11:37:25.324Z,26.00
2018-05-17T11:39:52.799Z,25.30
2018-05-17T11:42:21.014Z,25.90
2018-05-17T11:44:48.498Z,25.90
2018-05-17T11:47:15.977Z,25.70
2018-05-17T11:49:43.429Z,27.00
2018-05-17T11:52:11.623Z,25.70
2018-05-17T11:54:39.843Z,27.00
2018-05-17T11:57:07.312Z,27.00
2018-05-17T11:59:34.801Z,27.90
2018-05-17T12:02:02.243Z,26.00
2018-05-17T12:04:29.731Z,25.20
2018-05-17T12:06:57.946Z,26.90
2018-05-17T12:09:25.420Z,26.80
2018-05-17T12:11:52.900Z,26.20
2018-05-17T12:14:20.370Z,27.10
2018-05-17T12:16:48.590Z,26.50
2018-05-17T12:19:16.055Z,26.50
2018-05-17T12:21:43.525Z,25.50
2018-05-17T12:24:10.995Z,24.90
2018-05-17T12:26:38.450Z,25.00
2018-05-17T12:29:05.904Z,25.40
2018-05-17T12:31:33.370Z,24.60
2018-05-17T12:34:00.820Z,25.80
2018-05-17T12:36:28.274Z,26.90
2018-05-17T12:38:55.754Z,26.60
2018-05-17T12:41:23.976Z,27.20
2018-05-17T12:43:51.431Z,27.20
2018-05-17T12:46:18.868Z,26.00
2018-05-17T12:48:46.346Z,25.20
2018-05-17T12:51:13.800Z,25.90
2018-05-17T12:53:41.259Z,26.20
2018-05-17T12:56:08.729Z,26.10
2018-05-17T12:58:36.244Z,26.60
2018-05-17T13:01:03.670Z,25.40
2018-05-17T13:03:31.124Z,25.00
2018-05-17T13:05:58.606Z,24.90
2018-05-17T13:08:26.819Z,23.30
2018-05-17T13:10:54.271Z,23.30
2018-05-17T13:13:21.735Z,23.20
2018-05-17T13:15:49.205Z,22.70
2018-05-17T13:18:16.668Z,22.90
2018-05-17T13:20:44.151Z,22.50
2018-05-17T13:23:11.628Z,22.50
2018-05-17T13:25:39.846Z,22.00
2018-05-17T13:28:07.312Z,21.90
2018-05-17T13:30:34.763Z,21.80
2018-05-17T13:33:02.224Z,21.80
2018-05-17T13:35:29.689Z,21.40
2018-05-17T13:37:57.161Z,21.30
2018-05-17T13:40:24.623Z,21.60
2018-05-17T13:42:52.099Z,21.70
2018-05-17T13:45:20.333Z,21.40
2018-05-17T13:47:47.824Z,21.40
2018-05-17T13:50:15.235Z,20.90
2018-05-17T13:52:42.675Z,21.30
2018-05-17T13:55:10.155Z,21.40
2018-05-17T13:57:37.630Z,21.50
2018-05-17T14:00:05.101Z,21.40
2018-05-17T14:02:33.491Z,22.00
2018-05-17T14:05:00.848Z,22.00
2018-05-17T14:07:29.063Z,21.70
2018-05-17T14:09:56.523Z,21.80
2018-05-17T14:12:24.319Z,21.40
2018-05-17T14:14:51.799Z,21.50
2018-05-17T14:17:20.007Z,21.50
2018-05-17T14:19:47.473Z,21.40
2018-05-17T14:22:14.953Z,21.40
2018-05-17T14:24:42.391Z,21.50
2018-05-17T14:27:09.885Z,21.60
2018-05-17T14:29:37.352Z,21.50
2018-05-17T14:32:05.596Z,21.60
2018-05-17T14:34:33.094Z,21.50
2018-05-17T14:37:00.716Z,21.70
2018-05-17T14:39:28.387Z,21.60
2018-05-17T14:41:55.932Z,21.60
2018-05-17T14:44:23.479Z,21.90
2018-05-17T14:46:51.365Z,21.60
2018-05-17T14:49:19.702Z,21.70
2018-05-17T14:51:47.243Z,21.60
2018-05-17T14:54:14.800Z,21.60
2018-05-17T14:56:43.112Z,21.40
2018-05-17T14:59:10.650Z,21.40
2018-05-17T15:01:38.216Z,21.30
2018-05-17T15:04:05.822Z,21.30
2018-05-17T15:06:34.237Z,21.60
2018-05-17T15:09:01.810Z,21.60
2018-05-17T15:11:29.361Z,21.50
2018-05-17T15:13:56.988Z,21.20
2018-05-17T15:16:24.466Z,21.20
2018-05-17T15:18:52.095Z,21.00
2018-05-17T15:21:19.690Z,21.00
2018-05-17T15:23:47.221Z,21.30
2018-05-17T15:26:14.776Z,21.40
2018-05-17T15:28:42.313Z,21.00
2018-05-17T15:31:09.852Z,21.00
2018-05-17T15:33:37.392Z,20.90
2018-05-17T15:36:04.956Z,21.10
2018-05-17T15:38:32.501Z,21.00
2018-05-17T15:41:00.074Z,21.00
2018-05-17T15:43:27.599Z,20.90
2018-05-17T15:45:55.927Z,20.90
2018-05-17T15:48:24.523Z,20.70
2018-05-17T15:50:52.041Z,20.70
2018-05-17T15:53:19.605Z,20.80
2018-05-17T15:55:47.136Z,20.60
2018-05-17T15:58:14.673Z,20.60
2018-05-17T16:00:42.186Z,20.80
2018-05-17T16:03:09.729Z,20.80
2018-05-17T16:05:38.035Z,20.50
2018-05-17T16:08:05.586Z,20.50
2018-05-17T16:10:33.120Z,20.30
2018-05-17T16:13:00.662Z,20.10
2018-05-17T16:15:28.370Z,20.20
2018-05-17T16:17:55.822Z,20.40
2018-05-17T16:20:23.394Z,20.60
2018-05-17T16:22:50.912Z,20.60
2018-05-17T16:25:18.464Z,20.50
2018-05-17T16:27:46.815Z,20.50
2018-05-17T16:30:14.373Z,20.40
2018-05-17T16:32:41.999Z,20.40
2018-05-17T16:35:09.469Z,20.40
2018-05-17T16:37:37.004Z,20.60
2018-05-17T16:40:04.537Z,20.30
2018-05-17T16:42:32.852Z,20.30
2018-05-17T16:45:00.401Z,20.30
2018-05-17T16:47:27.920Z,20.30
2018-05-17T16:49:56.280Z,20.20
2018-05-17T16:52:23.785Z,20.20
2018-05-17T16:54:51.319Z,20.10
2018-05-17T16:57:19.644Z,20.20
2018-05-17T16:59:47.193Z,20.20
2018-05-17T17:02:14.725Z,20.30
2018-05-17T17:04:43.118Z,19.80
2018-05-17T17:07:10.577Z,19.80
2018-05-17T17:09:38.129Z,19.90
2018-05-17T17:12:06.551Z,20.10
2018-05-17T17:14:34.112Z,20.10
2018-05-17T17:17:01.657Z,20.10
2018-05-17T17:19:29.958Z,19.70
2018-05-17T17:21:57.604Z,19.70
2018-05-17T17:24:25.145Z,19.70
2018-05-17T17:26:52.692Z,19.70
2018-05-17T17:29:20.235Z,19.80
2018-05-17T17:31:47.777Z,19.60
2018-05-17T17:34:15.358Z,19.40
2018-05-17T17:36:42.897Z,19.50
2018-05-17T17:39:11.222Z,19.20
2018-05-17T17:41:38.776Z,19.10
2018-05-17T17:44:06.329Z,19.20
2018-05-17T17:46:33.855Z,19.40
2018-05-17T17:49:01.438Z,19.20
2018-05-17T17:51:29.017Z,19.10
2018-05-17T17:53:56.554Z,19.00
2018-05-17T17:56:24.130Z,19.00
2018-05-17T17:58:51.690Z,19.10
2018-05-17T18:01:19.232Z,18.90
2018-05-17T18:03:46.825Z,18.90
2018-05-17T18:06:14.329Z,18.70
2018-05-17T18:08:42.649Z,18.40
2018-05-17T18:11:10.202Z,18.30
2018-05-17T18:13:37.747Z,18.30
2018-05-17T18:16:05.329Z,18.30
2018-05-17T18:18:34.484Z,18.10
2018-05-17T18:21:03.615Z,18.10
2018-05-17T18:23:31.260Z,18.10
2018-05-17T18:25:58.843Z,18.20
2018-05-17T18:28:26.394Z,18.10
2018-05-17T18:30:53.971Z,17.90
2018-05-17T18:33:22.320Z,17.70
2018-05-17T18:35:49.862Z,17.70
2018-05-17T18:38:18.196Z,17.50
2018-05-17T18:40:45.752Z,17.50
2018-05-17T18:43:13.387Z,17.60
2018-05-17T18:45:40.827Z,17.80
2018-05-17T18:48:08.369Z,17.80
2018-05-17T18:50:35.955Z,17.70
2018-05-17T18:53:03.514Z,17.70
2018-05-17T18:55:31.040Z,17.60
2018-05-17T18:57:59.361Z,17.40
2018-05-17T19:00:26.932Z,17.40
2018-05-17T19:02:55.229Z,17.20
2018-05-17T19:05:22.763Z,17.20
2018-05-17T19:07:50.314Z,17.10
2018-05-17T19:10:17.863Z,17.20
2018-05-17T19:12:45.417Z,17.30
2018-05-17T19:15:13.001Z,17.00
2018-05-17T19:17:40.522Z,16.90
2018-05-17T19:20:08.867Z,17.00
2018-05-17T19:22:37.238Z,17.00
2018-05-17T19:25:04.792Z,17.00
2018-05-17T19:27:32.340Z,17.00
2018-05-17T19:29:59.895Z,17.00
2018-05-17T19:32:27.421Z,17.00
2018-05-17T19:34:54.983Z,17.00
2018-05-17T19:37:22.569Z,16.90
2018-05-17T19:39:50.027Z,16.80
2018-05-17T19:42:17.576Z,16.70
2018-05-17T19:44:45.113Z,16.70
2018-05-17T19:47:12.751Z,16.60
2018-05-17T19:49:40.136Z,16.40
2018-05-17T19:52:07.604Z,16.40
2018-05-17T19:54:35.088Z,16.30
2018-05-17T19:57:02.676Z,16.20
2018-05-17T19:59:30.136Z,16.20
2018-05-17T20:01:57.620Z,16.10
2018-05-17T20:04:25.854Z,16.20
2018-05-17T20:06:53.332Z,16.20
2018-05-17T20:09:21.572Z,16.20
2018-05-17T20:11:49.113Z,16.20
2018-05-17T20:14:16.569Z,16.20
2018-05-17T20:16:44.015Z,16.30
2018-05-17T20:19:11.480Z,16.20
2018-05-17T20:21:38.941Z,16.20
2018-05-17T20:24:06.432Z,16.00
2018-05-17T20:26:33.927Z,15.90
2018-05-17T20:29:02.159Z,16.00
2018-05-17T20:31:29.635Z,16.00
2018-05-17T20:33:57.091Z,16.00
2018-05-17T20:36:24.570Z,15.90
2018-05-17T20:38:52.800Z,15.90
2018-05-17T20:41:20.378Z,15.90
2018-05-17T20:43:48.603Z,15.60
2018-05-17T20:46:16.045Z,15.60
2018-05-17T20:48:43.497Z,15.50
2018-05-17T20:51:10.975Z,15.30
2018-05-17T20:53:38.457Z,15.30
2018-05-17T20:56:05.912Z,15.20
2018-05-17T20:58:33.365Z,15.20
2018-05-17T21:01:00.859Z,15.00
2018-05-17T21:03:28.346Z,14.80
2018-05-17T21:05:55.791Z,14.70
2018-05-17T21:08:24.036Z,14.70
2018-05-17T21:10:51.578Z,14.70
2018-05-17T21:13:19.166Z,14.70
2018-05-17T21:15:46.626Z,14.80
2018-05-17T21:18:14.874Z,14.40
2018-05-17T21:20:42.349Z,14.40
2018-05-17T21:23:10.704Z,14.40
2018-05-17T21:25:38.173Z,14.40
2018-05-17T21:28:05.746Z,14.40
2018-05-17T21:30:33.202Z,14.30
2018-05-17T21:33:00.657Z,14.10
2018-05-17T21:35:28.131Z,14.10
2018-05-17T21:37:56.371Z,14.00
2018-05-17T21:40:23.818Z,14.00
2018-05-17T21:42:51.300Z,13.90
2018-05-17T21:45:18.810Z,13.80
2018-05-17T21:47:46.267Z,13.90
2018-05-17T21:50:13.734Z,13.90
2018-05-17T21:52:41.185Z,13.90
2018-05-17T21:55:08.644Z,13.70
2018-05-17T21:57:36.128Z,13.40
2018-05-17T22:00:03.690Z,13.30
2018-05-17T22:02:31.269Z,13.50
2018-05-17T22:04:58.749Z,13.30
2018-05-17T22:07:27.075Z,13.50
2018-05-17T22:09:55.233Z,13.30
2018-05-17T22:12:22.718Z,13.30
2018-05-17T22:14:50.274Z,13.40
2018-05-17T22:17:17.750Z,13.20
2018-05-17T22:19:45.216Z,13.20
2018-05-17T22:22:13.462Z,13.20
2018-05-17T22:24:40.945Z,13.10
2018-05-17T22:27:08.391Z,13.20
2018-05-17T22:29:37.376Z,13.10
2018-05-17T22:32:04.850Z,13.10
2018-05-17T22:34:32.302Z,13.20
2018-05-17T22:36:59.837Z,13.30
2018-05-17T22:39:27.471Z,13.30
2018-05-17T22:41:54.947Z,13.40
2018-05-17T22:44:22.413Z,13.30
2018-05-17T22:46:49.884Z,13.30
2018-05-17T22:49:17.353Z,13.30
2018-05-17T22:51:44.913Z,13.40
2018-05-17T22:54:12.331Z,13.30
2018-05-17T22:56:51.812Z,13.30
2018-05-17T22:59:20.051Z,13.30
2018-05-17T23:01:47.502Z,13.30
2018-05-17T23:04:14.964Z,13.10
2018-05-17T23:06:42.475Z,13.00
2018-05-17T23:09:09.914Z,12.90
2018-05-17T23:11:38.162Z,12.60
2018-05-17T23:14:05.612Z,12.60
2018-05-17T23:16:33.079Z,12.60
2018-05-17T23:19:01.325Z,12.70
2018-05-17T23:21:28.816Z,12.70
2018-05-17T23:23:56.270Z,12.70
2018-05-17T23:26:23.714Z,12.60
2018-05-17T23:28:51.377Z,12.50
2018-05-17T23:31:18.852Z,12.30
2018-05-17T23:33:46.339Z,12.40
2018-05-17T23:36:14.553Z,12.40
2018-05-17T23:38:42.064Z,12.30
2018-05-17T23:41:22.231Z,12.40
2018-05-17T23:43:49.776Z,12.30
2018-05-17T23:46:18.017Z,12.00
2018-05-17T23:48:46.976Z,12.00
2018-05-17T23:51:14.455Z,12.00
2018-05-17T23:53:41.931Z,12.10
2018-05-17T23:56:09.496Z,12.20
2018-05-17T23:58:36.983Z,12.20
